Newton Aycliffe, United Kingdom
Current Conditions -  °F | °C
As of 6:20 PM on Saturday 25 Oct 2014 (Local Time) from EGNV Reporting Station
Few Clouds Few Clouds  
Wind Chill: 13°   Ceiling: Unl
Heat Index: 13°   Visibility: 6mi
Dew Point:   Wind: 20mph
Humidity: 67%   Direction: 220°SW
Pressure: 29.85"   Gusts: NA
Location:  54.62°N, 1.57°W
Report Text: EGNV 251720Z 22017KT 9999 FEW033 13/07 Q1011
Loading
Personal Weather Stations






























Interactive Weather Map
Tropical Storm Tracking
New forecast layout! Learn more

10-Day Weather Forecast

Advertisements
Track Severe Weather on mobile